Engenho Velho, Brazil
Current Conditions -  °F | °C
As of 4:00 PM on Friday 19 Dec 2014 (Local Time) from SBCH Reporting Station
Few Clouds Few Clouds  
Wind Chill: 88°   Ceiling: Unl
Heat Index: 90°   Visibility: 6mi
Dew Point: 66°   Wind: 5mph
Humidity: 49%   Direction: 290°WNW
Pressure: 29.77"   Gusts: NA
Location:  27.71°S, 52.91°W
Report Text: SBCH 191800Z 29004KT 9999 FEW035 FEW040TCU 31/19 Q1008
Loading
Personal Weather Stations






























Interactive Weather Map New forecast layout! Learn more

10-Day Weather Forecast

Advertisements
Track Severe Weather on mobile